This is the latest recevied weather packets stored in our database for station/object OZ1IEP-5. If no packets are shown the sender has not sent any weather packets the latest 10 day(s).
| Time | Temp. | Humidity | Pressure | Rain* | Wind** | Luminosity | Snow |
|---|---|---|---|---|---|---|---|
| 1787834405 | 22.22° C | 56% | 1019.6 hPa | 0 mm | - | 661 W/m² | - |
| 1787833808 | 22.78° C | 55% | 1019.7 hPa | 0 mm | - | 673 W/m² | - |
| 1787833206 | 22.78° C | 55% | 1019.7 hPa | 0 mm | - | 680 W/m² | - |
| 1787832606 | 22.78° C | 56% | 1019.9 hPa | 0 mm | - | 696 W/m² | - |
| 1787832007 | 22.78° C | 53% | 1020 hPa | 0 mm | - | 696 W/m² | - |
| 1787831406 | 22.78° C | 51% | 1020.1 hPa | 0 mm | - | 654 W/m² | - |
| 1787830805 | 22.78° C | 54% | 1020.2 hPa | 0 mm | - | 708 W/m² | - |
| 1787830208 | 22.22° C | 56% | 1020.4 hPa | 0 mm | - | 722 W/m² | - |
| 1787829605 | 21.67° C | 60% | 1020.4 hPa | 0 mm | - | 664 W/m² | - |
| 1787829005 | 21.67° C | 61% | 1020.5 hPa | 0 mm | - | 221 W/m² | - |
| 1787828407 | 21.67° C | 63% | 1020.6 hPa | 0 mm | - | 823 W/m² | - |
| 1787827806 | 21.67° C | 62% | 1020.8 hPa | 0 mm | - | 258 W/m² | - |
| 1787827206 | 22.22° C | 61% | 1020.9 hPa | 0 mm | - | 230 W/m² | - |
| 1787826608 | 22.22° C | 61% | 1020.9 hPa | 0 mm | - | 796 W/m² | - |
| 1787826006 | 21.67° C | 60% | 1020.9 hPa | 0 mm | - | 842 W/m² | - |
| 1787825405 | 21.11° C | 62% | 1021 hPa | 0 mm | - | 749 W/m² | - |
| 1787824807 | 21.11° C | 66% | 1021 hPa | 0 mm | - | 719 W/m² | - |
| 1787824205 | 20.56° C | 69% | 1021 hPa | 0 mm | - | 733 W/m² | - |
| 1787823605 | 20° C | 72% | 1021.3 hPa | 0 mm | - | 770 W/m² | - |
| 1787823007 | 20° C | 72% | 1021.5 hPa | 0 mm | - | 332 W/m² | - |
| 1787822406 | 19.44° C | 74% | 1021.7 hPa | 0 mm | - | 288 W/m² | - |
| 1787821805 | 19.44° C | 74% | 1021.8 hPa | 0 mm | - | 213 W/m² | - |
| 1787821208 | 19.44° C | 74% | 1021.9 hPa | 0 mm | - | 197 W/m² | - |
| 1787820605 | 19.44° C | 74% | 1022 hPa | 0 mm | - | 178 W/m² | - |
| 1787820006 | 19.44° C | 74% | 1022 hPa | 0 mm | - | 624 W/m² | - |
* Rain latest hour (hover to see other rain measurements)
** Current wind speed in m/s (hover to see current wind gust speed)